createdAt,value
2023-11-29T00:01:15.544Z,1.40
2023-11-29T00:04:17.910Z,1.40
2023-11-29T00:07:20.269Z,1.73
2023-11-29T00:10:23.646Z,1.90
2023-11-29T00:13:26.074Z,1.48
2023-11-29T00:16:28.413Z,2.08
2023-11-29T00:19:31.075Z,2.10
2023-11-29T00:22:33.429Z,3.17
2023-11-29T00:25:35.736Z,2.30
2023-11-29T00:28:38.103Z,2.97
2023-11-29T00:31:40.539Z,3.75
2023-11-29T00:34:43.331Z,2.80
2023-11-29T00:37:45.710Z,3.70
2023-11-29T00:40:48.088Z,3.60
2023-11-29T00:43:50.486Z,4.72
2023-11-29T00:46:52.907Z,2.55
2023-11-29T00:49:55.340Z,3.05
2023-11-29T00:52:57.746Z,3.13
2023-11-29T00:56:00.148Z,3.03
2023-11-29T00:59:02.533Z,3.65
2023-11-29T01:02:05.406Z,3.40
2023-11-29T01:05:08.303Z,3.72
2023-11-29T01:08:11.419Z,4.00
2023-11-29T01:11:14.417Z,4.67
2023-11-29T01:14:16.805Z,3.38
2023-11-29T01:17:19.209Z,3.30
2023-11-29T01:20:21.776Z,5.88
2023-11-29T01:23:24.142Z,3.77
2023-11-29T01:26:26.620Z,3.53
2023-11-29T01:29:29.025Z,4.38
2023-11-29T01:32:31.546Z,3.92
2023-11-29T01:35:33.989Z,4.32
2023-11-29T01:38:36.562Z,5.43
2023-11-29T01:41:38.971Z,5.87
2023-11-29T01:44:41.321Z,5.22
2023-11-29T01:47:44.296Z,7.20
2023-11-29T01:50:46.845Z,5.88
2023-11-29T01:53:52.823Z,5.90
2023-11-29T01:56:55.446Z,4.47
2023-11-29T01:59:57.892Z,5.03
2023-11-29T02:03:00.374Z,6.20
2023-11-29T02:06:02.935Z,4.82
2023-11-29T02:09:05.313Z,5.20
2023-11-29T02:12:10.797Z,5.43
2023-11-29T02:15:13.158Z,6.40
2023-11-29T02:18:15.587Z,5.38
2023-11-29T02:21:20.193Z,6.68
2023-11-29T02:24:25.558Z,4.83
2023-11-29T02:27:30.186Z,6.10
2023-11-29T02:30:32.594Z,7.10
2023-11-29T02:33:35.462Z,5.88
2023-11-29T02:36:37.873Z,6.28
2023-11-29T02:39:40.514Z,6.47
2023-11-29T02:42:42.868Z,5.83
2023-11-29T02:45:45.448Z,5.93
2023-11-29T02:48:47.932Z,7.80
2023-11-29T02:51:50.957Z,6.00
2023-11-29T02:54:53.334Z,7.13
2023-11-29T02:57:58.270Z,5.33
2023-11-29T03:01:00.890Z,6.60
2023-11-29T03:04:03.401Z,9.13
2023-11-29T03:07:05.809Z,8.55
2023-11-29T03:10:08.212Z,8.47
2023-11-29T03:13:10.837Z,7.23
2023-11-29T03:16:13.334Z,7.50
2023-11-29T03:19:15.711Z,7.35
2023-11-29T03:22:18.070Z,6.75
2023-11-29T03:25:20.463Z,6.63
2023-11-29T03:28:22.841Z,7.10
2023-11-29T03:31:25.189Z,7.97
2023-11-29T03:34:27.613Z,8.40
2023-11-29T03:37:29.990Z,6.30
2023-11-29T03:40:32.349Z,7.37
2023-11-29T03:43:34.711Z,6.70
2023-11-29T03:46:37.108Z,6.68
2023-11-29T03:49:39.561Z,9.20
2023-11-29T03:52:43.719Z,6.47
2023-11-29T03:55:46.590Z,8.17
2023-11-29T03:58:48.954Z,6.30
2023-11-29T04:01:51.436Z,6.53
2023-11-29T04:04:53.897Z,6.38
2023-11-29T04:07:56.250Z,6.07
2023-11-29T04:10:58.627Z,6.53
2023-11-29T04:14:00.982Z,6.43
2023-11-29T04:17:04.245Z,8.43
2023-11-29T04:20:07.236Z,8.05
2023-11-29T04:23:09.607Z,6.57
2023-11-29T04:26:24.549Z,5.73
2023-11-29T04:29:27.035Z,6.03
2023-11-29T04:32:29.946Z,6.78
2023-11-29T04:35:33.158Z,7.07
2023-11-29T04:38:35.665Z,5.18
2023-11-29T04:41:38.047Z,5.83
2023-11-29T04:44:40.407Z,16.77
2023-11-29T04:47:42.900Z,5.75
2023-11-29T04:50:45.264Z,6.20
2023-11-29T04:53:47.726Z,6.40
2023-11-29T04:56:50.200Z,5.33
2023-11-29T04:59:53.480Z,6.47
2023-11-29T05:02:56.970Z,6.15
2023-11-29T05:05:59.411Z,8.05
2023-11-29T05:09:01.810Z,5.60
2023-11-29T05:12:04.747Z,5.37
2023-11-29T05:15:08.043Z,5.33
2023-11-29T05:18:10.569Z,6.35
2023-11-29T05:21:12.984Z,6.30
2023-11-29T05:24:15.297Z,5.30
2023-11-29T05:27:17.725Z,6.67
2023-11-29T05:30:20.120Z,6.37
2023-11-29T05:33:23.042Z,6.10
2023-11-29T05:36:26.334Z,6.45
2023-11-29T05:39:28.699Z,5.97
2023-11-29T05:42:31.054Z,5.13
2023-11-29T05:45:33.441Z,7.57
2023-11-29T05:48:35.806Z,6.32
2023-11-29T05:51:38.379Z,6.53
2023-11-29T05:54:40.742Z,5.95
2023-11-29T05:57:46.313Z,5.50
2023-11-29T06:00:48.849Z,7.77
2023-11-29T06:03:51.268Z,7.53
2023-11-29T06:06:53.696Z,6.28
2023-11-29T06:09:56.103Z,16.55
2023-11-29T06:12:58.434Z,19.57
2023-11-29T06:16:01.123Z,6.13
2023-11-29T06:19:03.527Z,5.65
2023-11-29T06:22:05.966Z,5.93
2023-11-29T06:25:09.374Z,9.50
2023-11-29T06:28:11.918Z,6.43
2023-11-29T06:31:14.321Z,7.03
2023-11-29T06:34:16.890Z,5.65
2023-11-29T06:37:19.352Z,9.93
2023-11-29T06:40:21.779Z,8.70
2023-11-29T06:43:24.488Z,7.30
2023-11-29T06:46:27.069Z,6.90
2023-11-29T06:49:29.510Z,6.20
2023-11-29T06:52:32.578Z,4.88
2023-11-29T06:55:34.946Z,8.05
2023-11-29T06:58:39.194Z,10.13
2023-11-29T07:01:41.681Z,13.07
2023-11-29T07:04:44.890Z,9.77
2023-11-29T07:07:48.626Z,11.20
2023-11-29T07:10:51.594Z,14.00
2023-11-29T07:13:53.976Z,13.63
2023-11-29T07:16:56.350Z,9.83
2023-11-29T07:20:15.809Z,8.70
2023-11-29T07:23:33.632Z,8.88
2023-11-29T07:26:56.516Z,9.38
2023-11-29T07:29:58.974Z,9.30
2023-11-29T07:33:01.610Z,9.43
2023-11-29T07:36:13.459Z,8.73
2023-11-29T07:39:15.777Z,7.43
2023-11-29T07:42:18.198Z,7.70
2023-11-29T07:45:22.868Z,7.10
2023-11-29T07:48:26.225Z,5.77
2023-11-29T07:51:28.678Z,7.63
2023-11-29T07:54:31.641Z,5.55
2023-11-29T07:57:34.967Z,6.00
2023-11-29T08:00:37.298Z,6.63
2023-11-29T08:03:39.709Z,4.50
2023-11-29T08:06:42.564Z,3.95
2023-11-29T08:09:45.717Z,21.98
2023-11-29T08:12:48.134Z,9.38
2023-11-29T08:15:50.547Z,9.50
2023-11-29T08:18:53.867Z,5.97
2023-11-29T08:21:56.329Z,6.65
2023-11-29T08:24:58.724Z,5.60
2023-11-29T08:28:01.134Z,10.30
2023-11-29T08:31:03.678Z,11.30
2023-11-29T08:34:06.079Z,16.87
2023-11-29T08:37:08.405Z,10.68
2023-11-29T08:40:11.189Z,6.40
2023-11-29T08:43:22.184Z,9.65
2023-11-29T08:46:27.043Z,6.57
2023-11-29T08:49:29.461Z,9.47
2023-11-29T08:52:32.622Z,8.68
2023-11-29T08:55:37.132Z,14.93
2023-11-29T08:58:39.501Z,17.13
2023-11-29T09:01:42.053Z,22.70
2023-11-29T09:04:44.428Z,22.33
2023-11-29T09:07:47.064Z,8.98
2023-11-29T09:11:12.433Z,6.95
2023-11-29T09:14:26.446Z,6.82
2023-11-29T09:17:43.707Z,8.07
2023-11-29T09:20:46.734Z,6.57
2023-11-29T09:23:49.243Z,5.53
2023-11-29T09:26:51.674Z,7.00
2023-11-29T09:29:54.109Z,8.57
2023-11-29T09:32:57.329Z,7.07
2023-11-29T09:36:00.191Z,7.10
2023-11-29T09:39:13.204Z,5.53
2023-11-29T09:42:15.630Z,5.78
2023-11-29T09:45:22.561Z,5.38
2023-11-29T09:48:25.172Z,7.37
2023-11-29T09:51:28.275Z,5.20
2023-11-29T09:54:32.457Z,9.52
2023-11-29T09:57:35.106Z,5.43
2023-11-29T10:00:37.556Z,7.95
2023-11-29T10:03:40.055Z,11.07
2023-11-29T10:06:42.667Z,18.57
2023-11-29T10:09:45.079Z,22.63
2023-11-29T10:12:47.428Z,6.93
2023-11-29T10:15:54.389Z,11.05
2023-11-29T10:18:57.408Z,7.87
2023-11-29T10:22:02.868Z,10.37
2023-11-29T10:25:20.222Z,6.80
2023-11-29T10:28:22.593Z,28.70
2023-11-29T10:31:25.082Z,16.75
2023-11-29T10:34:27.564Z,11.23
2023-11-29T10:37:30.005Z,12.33
2023-11-29T10:40:32.361Z,10.73
2023-11-29T10:43:35.746Z,7.95
2023-11-29T10:46:38.259Z,8.60
2023-11-29T10:49:49.645Z,6.43
2023-11-29T10:52:52.076Z,6.47
2023-11-29T10:55:54.437Z,4.50
2023-11-29T10:59:25.425Z,5.13
2023-11-29T11:02:31.375Z,7.15
2023-11-29T11:05:34.306Z,5.60
2023-11-29T11:08:36.960Z,11.47
2023-11-29T11:11:46.704Z,4.90
2023-11-29T11:14:52.316Z,6.72
2023-11-29T11:18:03.811Z,5.75
2023-11-29T11:21:08.491Z,5.63
2023-11-29T11:24:12.186Z,3.93
2023-11-29T11:27:14.672Z,5.40
2023-11-29T11:30:19.482Z,7.13
2023-11-29T11:33:21.953Z,5.38
2023-11-29T11:36:25.080Z,10.13
2023-11-29T11:39:28.822Z,10.20
2023-11-29T11:42:31.458Z,6.90
2023-11-29T11:45:34.879Z,3.88
2023-11-29T11:48:40.516Z,6.47
2023-11-29T11:51:43.004Z,15.67
2023-11-29T11:54:46.296Z,8.60
2023-11-29T11:57:48.730Z,7.22
2023-11-29T12:00:51.116Z,8.55
2023-11-29T12:03:53.550Z,5.93
2023-11-29T12:06:55.946Z,13.02
2023-11-29T12:09:58.410Z,5.27
2023-11-29T12:13:02.252Z,5.28
2023-11-29T12:16:18.277Z,5.57
2023-11-29T12:19:23.443Z,10.48
2023-11-29T12:22:26.425Z,7.13
2023-11-29T12:25:29.492Z,8.47
2023-11-29T12:28:33.939Z,11.82
2023-11-29T12:31:37.776Z,9.32
2023-11-29T12:34:42.297Z,4.95
2023-11-29T12:37:48.328Z,5.23
2023-11-29T12:40:50.971Z,7.87
2023-11-29T12:43:53.752Z,5.53
2023-11-29T12:46:56.114Z,4.75
2023-11-29T12:49:58.924Z,5.40
2023-11-29T12:53:01.353Z,6.37
2023-11-29T12:56:03.913Z,6.53
2023-11-29T12:59:06.799Z,8.18
2023-11-29T13:02:09.379Z,5.47
2023-11-29T13:05:12.328Z,4.57
2023-11-29T13:08:14.706Z,8.27
2023-11-29T13:11:17.140Z,9.37
2023-11-29T13:14:20.837Z,5.00
2023-11-29T13:17:24.078Z,5.43
2023-11-29T13:20:26.569Z,6.35
2023-11-29T13:23:28.971Z,5.37
2023-11-29T13:26:31.488Z,3.70
2023-11-29T13:29:35.219Z,4.32
2023-11-29T13:32:37.910Z,4.03
2023-11-29T13:35:40.740Z,10.50
2023-11-29T13:38:43.208Z,4.67
2023-11-29T13:41:46.254Z,6.07
2023-11-29T13:44:49.363Z,7.07
2023-11-29T13:47:51.932Z,5.95
2023-11-29T13:50:56.754Z,5.40
2023-11-29T13:53:59.227Z,7.40
2023-11-29T13:57:02.921Z,11.40
2023-11-29T14:00:06.348Z,9.50
2023-11-29T14:03:09.963Z,7.03
2023-11-29T14:06:13.164Z,4.20
2023-11-29T14:09:15.677Z,7.33
2023-11-29T14:12:19.075Z,5.47
2023-11-29T14:15:21.564Z,9.27
2023-11-29T14:18:24.241Z,11.50
2023-11-29T14:21:26.742Z,7.85
2023-11-29T14:24:29.083Z,5.67
2023-11-29T14:27:44.600Z,5.10
2023-11-29T14:30:54.102Z,5.00
2023-11-29T14:33:56.754Z,10.35
2023-11-29T14:36:59.178Z,6.07
2023-11-29T14:40:01.557Z,7.07
2023-11-29T14:43:03.912Z,9.33
2023-11-29T14:46:06.389Z,13.38
2023-11-29T14:49:13.833Z,12.98
2023-11-29T14:52:19.260Z,13.18
2023-11-29T14:55:21.753Z,13.83
2023-11-29T14:58:24.446Z,12.30
2023-11-29T15:01:26.866Z,13.57
2023-11-29T15:04:29.368Z,14.50
2023-11-29T15:07:31.741Z,17.55
2023-11-29T15:10:34.112Z,17.20
2023-11-29T15:13:41.563Z,21.07
2023-11-29T15:16:44.554Z,24.15
2023-11-29T15:19:47.030Z,23.25
2023-11-29T15:22:49.390Z,25.30
2023-11-29T15:25:51.802Z,38.20
2023-11-29T15:28:54.170Z,41.30
2023-11-29T15:31:56.881Z,43.90
2023-11-29T15:34:59.252Z,57.83
2023-11-29T15:38:01.775Z,45.83
2023-11-29T15:41:04.236Z,66.07
2023-11-29T15:44:07.100Z,150.07
2023-11-29T15:47:09.669Z,81.57
2023-11-29T15:50:12.660Z,72.15
2023-11-29T15:53:15.157Z,108.00
2023-11-29T15:56:17.541Z,86.57
2023-11-29T15:59:19.942Z,69.03
2023-11-29T16:02:22.427Z,255.07
2023-11-29T16:05:24.834Z,335.23
2023-11-29T16:08:27.513Z,525.88
2023-11-29T16:11:29.922Z,191.27
2023-11-29T16:14:32.298Z,103.10
2023-11-29T16:17:34.868Z,164.98
2023-11-29T16:20:37.983Z,175.57
2023-11-29T16:23:40.689Z,150.52
2023-11-29T16:26:43.552Z,185.70
2023-11-29T16:29:48.419Z,189.27
2023-11-29T16:32:51.060Z,241.63
2023-11-29T16:35:53.491Z,289.55
2023-11-29T16:38:56.009Z,205.18
2023-11-29T16:41:58.694Z,199.07
2023-11-29T16:45:01.141Z,149.77
2023-11-29T16:48:05.634Z,149.48
2023-11-29T16:51:09.992Z,149.07
2023-11-29T16:54:12.433Z,114.30
2023-11-29T16:57:14.844Z,65.77
2023-11-29T17:00:17.825Z,58.63
2023-11-29T17:03:20.266Z,41.55
2023-11-29T17:06:22.794Z,37.33
2023-11-29T17:09:25.398Z,28.95
2023-11-29T17:12:27.849Z,13.80
2023-11-29T17:15:30.232Z,13.47
2023-11-29T17:18:32.685Z,11.02
2023-11-29T17:21:36.037Z,11.45
2023-11-29T17:24:38.486Z,12.73
2023-11-29T17:27:40.887Z,10.97
2023-11-29T17:30:46.234Z,8.50
2023-11-29T17:33:48.800Z,9.48
2023-11-29T17:36:51.219Z,14.23
2023-11-29T17:39:54.339Z,14.65
2023-11-29T17:42:56.735Z,26.13
2023-11-29T17:45:59.093Z,83.30
2023-11-29T17:49:01.493Z,87.80
2023-11-29T17:52:04.249Z,89.03
2023-11-29T17:55:06.881Z,56.92
2023-11-29T17:58:09.696Z,68.43
2023-11-29T18:01:12.052Z,220.50
2023-11-29T18:04:14.596Z,116.95
2023-11-29T18:07:17.082Z,48.88
2023-11-29T18:10:19.453Z,59.08
2023-11-29T18:13:23.855Z,49.50
2023-11-29T18:16:27.577Z,86.27
2023-11-29T18:19:29.986Z,49.53
2023-11-29T18:22:32.449Z,53.75
2023-11-29T18:25:36.301Z,53.72
2023-11-29T18:28:44.371Z,49.43
2023-11-29T18:31:49.877Z,28.43
2023-11-29T18:34:52.263Z,30.92
2023-11-29T18:37:54.657Z,20.30
2023-11-29T18:40:57.042Z,17.90
2023-11-29T18:43:59.783Z,17.33
2023-11-29T18:47:02.121Z,17.43
2023-11-29T18:50:04.781Z,20.08
2023-11-29T18:53:07.327Z,27.08
2023-11-29T18:56:09.945Z,55.70
2023-11-29T18:59:13.740Z,25.50
2023-11-29T19:02:16.532Z,24.47
2023-11-29T19:05:19.058Z,67.60
2023-11-29T19:08:21.462Z,172.70
2023-11-29T19:11:23.858Z,359.52
2023-11-29T19:14:27.032Z,98.13
2023-11-29T19:17:29.785Z,44.17
2023-11-29T19:20:32.227Z,31.38
2023-11-29T19:23:38.389Z,69.03
2023-11-29T19:26:45.598Z,84.85
2023-11-29T19:29:48.003Z,89.07
2023-11-29T19:32:50.738Z,64.73
2023-11-29T19:35:53.168Z,69.10
2023-11-29T19:38:55.612Z,96.20
2023-11-29T19:41:58.024Z,72.88
2023-11-29T19:45:00.589Z,65.67
2023-11-29T19:48:03.836Z,166.97
2023-11-29T19:51:07.834Z,163.57
2023-11-29T19:54:10.221Z,111.80
2023-11-29T19:57:13.138Z,134.88
2023-11-29T20:00:16.105Z,124.80
2023-11-29T20:03:18.602Z,119.30
2023-11-29T20:06:28.317Z,103.75
2023-11-29T20:09:34.376Z,83.15
2023-11-29T20:12:36.819Z,63.00
2023-11-29T20:15:39.253Z,57.40
2023-11-29T20:18:42.809Z,51.20
2023-11-29T20:21:45.362Z,47.78
2023-11-29T20:24:47.774Z,45.50
2023-11-29T20:27:50.123Z,39.42
2023-11-29T20:30:53.381Z,36.50
2023-11-29T20:33:58.688Z,32.70
2023-11-29T20:37:01.208Z,29.70
2023-11-29T20:40:03.709Z,31.58
2023-11-29T20:43:06.094Z,22.17
2023-11-29T20:46:09.199Z,20.97
2023-11-29T20:49:11.675Z,24.17
2023-11-29T20:52:14.064Z,17.65
2023-11-29T20:55:16.475Z,18.83
2023-11-29T20:58:21.616Z,16.65
2023-11-29T21:01:25.224Z,16.00
2023-11-29T21:04:27.688Z,14.27
2023-11-29T21:07:30.998Z,15.48
2023-11-29T21:10:33.400Z,13.25
2023-11-29T21:13:35.717Z,11.75
2023-11-29T21:16:38.097Z,15.43
2023-11-29T21:19:41.209Z,15.70
2023-11-29T21:22:43.597Z,14.35
2023-11-29T21:25:46.045Z,12.20
2023-11-29T21:28:48.509Z,13.18
2023-11-29T21:31:52.272Z,15.63
2023-11-29T21:34:54.681Z,13.50
2023-11-29T21:37:57.311Z,19.42
2023-11-29T21:40:59.667Z,18.30
2023-11-29T21:44:02.170Z,22.25
2023-11-29T21:47:04.841Z,73.37
2023-11-29T21:50:08.900Z,109.07
2023-11-29T21:53:11.315Z,121.20
2023-11-29T21:56:13.669Z,73.65
2023-11-29T21:59:16.029Z,52.65
2023-11-29T22:02:18.462Z,37.97
2023-11-29T22:05:21.004Z,32.37
2023-11-29T22:08:23.351Z,32.83
2023-11-29T22:11:26.018Z,29.55
2023-11-29T22:14:28.585Z,25.73
2023-11-29T22:17:31.034Z,26.27
2023-11-29T22:20:33.450Z,32.97
2023-11-29T22:23:35.865Z,54.20
2023-11-29T22:26:47.462Z,98.05
2023-11-29T22:29:54.740Z,73.22
2023-11-29T22:32:57.195Z,65.07
2023-11-29T22:35:59.744Z,47.83
2023-11-29T22:39:04.313Z,52.40
2023-11-29T22:42:06.755Z,48.10
2023-11-29T22:45:09.658Z,37.00
2023-11-29T22:48:12.219Z,24.63
2023-11-29T22:51:19.029Z,30.13
2023-11-29T22:54:21.537Z,26.95
2023-11-29T22:57:24.007Z,18.27
2023-11-29T23:00:26.432Z,13.63
2023-11-29T23:03:28.838Z,11.13
2023-11-29T23:06:32.352Z,10.57
2023-11-29T23:09:35.338Z,10.73
2023-11-29T23:12:37.734Z,15.52
2023-11-29T23:15:40.145Z,15.63
2023-11-29T23:18:43.283Z,36.93
2023-11-29T23:21:45.819Z,40.27
2023-11-29T23:24:48.195Z,55.50
2023-11-29T23:27:50.541Z,48.40
2023-11-29T23:30:52.959Z,30.85
2023-11-29T23:33:55.393Z,44.37
2023-11-29T23:36:57.753Z,20.93
2023-11-29T23:40:00.185Z,15.88
2023-11-29T23:43:02.582Z,26.13
2023-11-29T23:46:05.183Z,30.02
2023-11-29T23:49:07.657Z,25.93
2023-11-29T23:52:10.070Z,32.97
2023-11-29T23:55:12.420Z,83.18
2023-11-29T23:58:14.774Z,58.45
